Time;durP1;ratioP1;P1;durP2;ratioP2;P2;SDS_P1;SDS_P2;PMS_P1;PMS_P2;Temp;Humidity;BMP_temperature;BMP_pressure;BME280_temperature;BME280_humidity;BME280_pressure;Samples;Min_cycle;Max_cycle;Signal;HPM_P1;HPM_P2
2022/11/27 00:01:40;;;;;;;48.08;14.93;;;8.10;97.70;;;;;;1882503;76;21334;-40
2022/11/27 00:04:11;;;;;;;51.18;15.20;;;8.10;97.70;;;;;;1882380;75;21408;-39
2022/11/27 00:06:41;;;;;;;51.75;14.53;;;8.10;97.70;;;;;;1882356;76;21133;-40
2022/11/27 00:09:13;;;;;;;45.52;14.25;;;8.10;97.60;;;;;;1882407;76;21217;-39
2022/11/27 00:11:43;;;;;;;49.33;15.28;;;8.10;97.60;;;;;;1881680;75;21326;-39
2022/11/27 00:14:15;;;;;;;60.55;16.48;;;8.10;97.60;;;;;;1872935;75;21717;-39
2022/11/27 00:16:44;;;;;;;33.23;13.32;;;8.10;97.60;;;;;;1872872;76;21270;-39
2022/11/27 00:19:13;;;;;;;36.90;13.43;;;8.00;97.60;;;;;;1872868;75;21267;-39
2022/11/27 00:21:42;;;;;;;34.03;13.72;;;8.00;97.70;;;;;;1872954;77;21270;-40
2022/11/27 00:24:12;;;;;;;46.68;16.12;;;8.00;97.70;;;;;;1872843;75;21270;-39
2022/11/27 00:26:41;;;;;;;42.17;15.98;;;8.00;97.70;;;;;;1872822;76;21449;-39
2022/11/27 00:29:10;;;;;;;64.82;16.07;;;7.90;97.60;;;;;;1872825;76;21262;-39
2022/11/27 00:31:40;;;;;;;24.65;11.08;;;7.90;97.70;;;;;;1872767;76;21294;-39
2022/11/27 00:34:10;;;;;;;59.27;15.28;;;8.00;97.80;;;;;;1872929;76;21170;-39
2022/11/27 00:36:39;;;;;;;41.90;13.93;;;8.00;97.80;;;;;;1872897;76;21336;-39
2022/11/27 00:39:09;;;;;;;37.35;14.15;;;8.00;97.80;;;;;;1872905;77;21246;-39
2022/11/27 00:41:39;;;;;;;32.78;13.50;;;7.90;97.80;;;;;;1872869;77;21254;-39
2022/11/27 00:44:08;;;;;;;40.30;12.88;;;8.00;97.70;;;;;;1872790;77;21402;-39
2022/11/27 00:46:39;;;;;;;36.93;13.30;;;8.00;97.80;;;;;;1872958;77;21255;-39
2022/11/27 00:49:08;;;;;;;53.30;15.95;;;7.90;97.80;;;;;;1872821;76;21299;-40
2022/11/27 00:51:37;;;;;;;39.67;15.30;;;7.90;97.70;;;;;;1872837;76;21279;-39
2022/11/27 00:54:07;;;;;;;30.90;12.98;;;7.90;97.80;;;;;;1872846;77;21387;-39
2022/11/27 00:56:38;;;;;;;39.75;14.63;;;7.90;97.80;;;;;;1872815;77;21250;-39
2022/11/27 00:59:07;;;;;;;31.45;13.00;;;7.90;97.80;;;;;;1872792;76;21334;-39
2022/11/27 01:01:39;;;;;;;46.83;13.35;;;7.90;97.80;;;;;;1872807;77;21352;-39
2022/11/27 01:04:11;;;;;;;39.95;14.18;;;7.90;97.80;;;;;;1872796;77;21290;-39
2022/11/27 01:06:40;;;;;;;33.58;13.83;;;7.90;97.80;;;;;;1872961;76;21674;-39
2022/11/27 01:09:10;;;;;;;32.93;13.03;;;7.90;97.90;;;;;;1872678;77;21274;-40
2022/11/27 01:11:40;;;;;;;40.85;15.35;;;7.90;97.80;;;;;;1872773;77;21262;-39
2022/11/27 01:14:12;;;;;;;39.48;13.48;;;7.90;97.80;;;;;;1880402;76;21608;-39
2022/11/27 01:16:41;;;;;;;42.20;15.32;;;8.00;97.70;;;;;;1880620;76;21290;-39
2022/11/27 01:19:12;;;;;;;31.50;13.38;;;8.00;97.70;;;;;;1882204;76;22080;-40
2022/11/27 01:21:41;;;;;;;33.10;13.78;;;8.00;97.70;;;;;;1882261;76;21274;-40
2022/11/27 01:24:12;;;;;;;42.53;13.98;;;8.00;97.70;;;;;;1882284;76;21133;-39
2022/11/27 01:26:41;;;;;;;27.25;12.00;;;8.00;97.60;;;;;;1882302;76;21254;-39
2022/11/27 01:29:11;;;;;;;38.50;14.85;;;8.00;97.60;;;;;;1882304;75;21287;-39
2022/11/27 01:31:40;;;;;;;38.25;13.90;;;8.00;97.60;;;;;;1882230;76;21250;-40
2022/11/27 01:34:12;;;;;;;32.55;12.70;;;8.00;97.50;;;;;;1882210;76;21225;-39
2022/11/27 01:36:41;;;;;;;32.60;13.65;;;8.00;97.60;;;;;;1882299;75;21193;-39
2022/11/27 01:39:12;;;;;;;38.40;13.65;;;8.10;97.50;;;;;;1882354;76;21702;-39
2022/11/27 01:41:42;;;;;;;42.30;13.38;;;8.10;97.50;;;;;;1882312;76;21180;-39
2022/11/27 01:44:29;;;;;;;33.83;12.23;;;8.10;97.50;;;;;;1882283;76;21205;-39
2022/11/27 01:47:04;;;;;;;24.05;11.15;;;8.20;97.40;;;;;;1882309;76;21229;-39
2022/11/27 01:49:33;;;;;;;;;;;8.10;97.40;;;;;;1885100;75;21215;-39
2022/11/27 01:52:08;;;;;;;34.75;13.05;;;8.00;97.40;;;;;;1882299;76;20708;-39
2022/11/27 01:55:03;;;;;;;38.28;11.65;;;8.00;97.40;;;;;;1882414;76;21206;-39
2022/11/27 01:57:37;;;;;;;26.65;11.88;;;7.90;97.50;;;;;;1875551;76;21209;-39
2022/11/27 02:00:09;;;;;;;32.88;12.55;;;7.90;97.60;;;;;;1880265;76;21205;-39
2022/11/27 02:02:45;;;;;;;36.88;13.22;;;7.90;97.70;;;;;;1882331;76;21148;-39
2022/11/27 02:05:20;;;;;;;39.60;11.83;;;7.90;97.70;;;;;;1882335;76;21306;-39
2022/11/27 02:07:49;;;;;;;35.85;12.40;;;7.90;97.70;;;;;;1882403;76;21390;-39
2022/11/27 02:10:18;;;;;;;38.05;14.13;;;7.90;97.60;;;;;;1882269;76;21334;-39
2022/11/27 02:13:02;;;;;;;48.55;12.33;;;7.90;97.60;;;;;;1882017;75;21272;-39
2022/11/27 02:15:34;;;;;;;35.73;12.50;;;7.90;97.60;;;;;;1872800;76;21263;-39
2022/11/27 02:18:23;;;;;;;30.95;13.60;;;7.90;97.60;;;;;;1872504;76;21803;-39
2022/11/27 02:20:55;;;;;;;42.60;14.13;;;7.90;97.60;;;;;;1872666;76;21326;-39
2022/11/27 02:23:36;;;;;;;31.25;9.65;;;7.90;97.70;;;;;;1872698;76;21315;-39
2022/11/27 02:26:27;;;;;;;45.65;15.58;;;7.90;97.70;;;;;;1871397;76;21421;-39
2022/11/27 02:29:05;;;;;;;33.58;13.20;;;7.80;97.70;;;;;;1869674;77;21383;-39
2022/11/27 02:31:40;;;;;;;55.67;15.25;;;7.80;97.80;;;;;;1872809;76;21181;-39
2022/11/27 02:34:24;;;;;;;43.87;13.65;;;7.80;97.90;;;;;;1872964;76;21221;-39
2022/11/27 02:36:56;;;;;;;39.33;12.88;;;7.80;97.90;;;;;;1873008;77;21254;-39
2022/11/27 02:39:27;;;;;;;43.65;13.25;;;7.80;97.90;;;;;;1872597;76;21358;-39
2022/11/27 02:41:59;;;;;;;50.80;15.05;;;7.80;98.00;;;;;;1872829;76;21206;-39
2022/11/27 02:44:31;;;;;;;49.13;14.53;;;7.80;97.80;;;;;;1871236;76;21210;-40
2022/11/27 02:47:01;;;;;;;44.03;13.80;;;7.80;97.90;;;;;;1872736;77;21784;-39
2022/11/27 02:49:31;;;;;;;62.48;15.30;;;7.90;97.80;;;;;;1872796;77;21255;-39
2022/11/27 02:52:02;;;;;;;44.77;15.35;;;7.90;97.80;;;;;;1872706;77;21385;-41
2022/11/27 02:54:32;;;;;;;61.88;16.27;;;8.00;97.80;;;;;;1872767;76;21314;-39
2022/11/27 02:57:04;;;;;;;52.98;15.05;;;8.00;97.70;;;;;;1872858;76;21336;-39
2022/11/27 02:59:35;;;;;;;37.55;14.05;;;8.00;97.70;;;;;;1872738;75;21258;-39
2022/11/27 03:02:10;;;;;;;51.48;14.47;;;8.00;97.60;;;;;;1872760;77;21500;-39
2022/11/27 03:04:41;;;;;;;53.60;16.40;;;8.00;97.60;;;;;;1873027;75;21336;-39
2022/11/27 03:07:13;;;;;;;50.17;15.55;;;8.00;97.60;;;;;;1872881;76;21380;-39
2022/11/27 03:09:48;;;;;;;81.82;15.95;;;8.10;97.70;;;;;;1872821;77;21761;-39
2022/11/27 03:12:18;;;;;;;44.08;15.80;;;8.00;97.60;;;;;;1873070;77;21145;-39
2022/11/27 03:14:48;;;;;;;48.60;13.85;;;8.10;97.60;;;;;;1878816;76;21136;-39
2022/11/27 03:17:29;;;;;;;36.33;13.58;;;8.10;97.60;;;;;;1882248;76;21695;-39
2022/11/27 03:20:01;;;;;;;48.13;13.62;;;8.10;97.50;;;;;;1882216;76;21449;-39
2022/11/27 03:22:30;;;;;;;52.73;16.10;;;8.10;97.40;;;;;;1882194;76;21608;-39
2022/11/27 03:24:59;;;;;;;43.52;15.43;;;8.10;97.40;;;;;;1882340;76;21182;-39
2022/11/27 03:27:34;;;;;;;47.65;14.23;;;8.10;97.50;;;;;;1882205;76;21628;-39
2022/11/27 03:30:06;;;;;;;67.12;15.48;;;8.10;97.50;;;;;;1882396;76;21720;-39
2022/11/27 03:32:35;;;;;;;66.00;16.40;;;8.10;97.60;;;;;;1882164;76;21245;-40
2022/11/27 03:35:06;;;;;;;52.53;15.48;;;8.10;97.50;;;;;;1882173;75;21341;-39
2022/11/27 03:37:36;;;;;;;60.75;15.63;;;8.10;97.50;;;;;;1882373;76;21331;-39
2022/11/27 03:40:06;;;;;;;53.83;14.10;;;8.10;97.50;;;;;;1882341;76;21264;-39
2022/11/27 03:42:57;;;;;;;37.58;13.08;;;8.20;97.60;;;;;;1882317;76;21275;-41
2022/11/27 03:45:37;;;;;;;62.17;15.28;;;8.20;97.40;;;;;;1881864;76;21113;-39
2022/11/27 03:48:10;;;;;;;57.93;15.93;;;8.30;97.60;;;;;;1881004;76;21409;-39
2022/11/27 03:51:01;;;;;;;61.58;14.55;;;8.30;97.40;;;;;;1880748;76;21615;-39
2022/11/27 03:54:06;;;;;;;48.55;17.30;;;8.30;97.30;;;;;;1882432;75;21631;-39
2022/11/27 03:56:50;;;;;;;53.25;15.63;;;8.30;97.30;;;;;;1882135;75;21280;-39
2022/11/27 03:59:22;;;;;;;36.17;11.45;;;8.20;97.30;;;;;;1882218;75;21358;-39
2022/11/27 04:01:51;;;;;;;63.25;16.27;;;8.20;97.30;;;;;;1881028;76;21752;-40
2022/11/27 04:04:20;;;;;;;54.25;13.88;;;8.20;97.30;;;;;;1882239;76;21302;-39
2022/11/27 04:06:49;;;;;;;49.60;16.40;;;8.20;97.40;;;;;;1882302;76;21330;-40
2022/11/27 04:09:18;;;;;;;37.05;14.58;;;8.10;97.40;;;;;;1882363;76;21207;-39
2022/11/27 04:11:47;;;;;;;42.93;14.55;;;8.00;97.40;;;;;;1882190;76;21293;-39
2022/11/27 04:14:17;;;;;;;45.17;15.85;;;8.00;97.40;;;;;;1880334;76;21375;-39
2022/11/27 04:16:46;;;;;;;42.13;14.33;;;8.10;97.50;;;;;;1872663;75;21413;-39
2022/11/27 04:19:15;;;;;;;52.95;15.35;;;8.10;97.60;;;;;;1872669;77;21307;-39
2022/11/27 04:21:45;;;;;;;33.28;11.95;;;8.10;97.50;;;;;;1872794;76;21319;-39
2022/11/27 04:24:14;;;;;;;44.33;14.73;;;8.00;97.40;;;;;;1872762;76;21171;-39
2022/11/27 04:26:43;;;;;;;38.08;12.58;;;8.10;97.40;;;;;;1872733;77;21266;-39
2022/11/27 04:29:12;;;;;;;30.00;12.40;;;8.00;97.40;;;;;;1872691;76;21130;-39
2022/11/27 04:31:42;;;;;;;42.13;12.88;;;8.00;97.50;;;;;;1872630;77;21276;-39
2022/11/27 04:34:11;;;;;;;21.40;10.20;;;8.00;97.40;;;;;;1872781;76;21210;-40
2022/11/27 04:36:41;;;;;;;36.33;12.33;;;8.00;97.50;;;;;;1872800;77;21262;-39
2022/11/27 04:39:12;;;;;;;28.92;11.50;;;7.90;97.40;;;;;;1872846;77;21278;-39
2022/11/27 04:41:41;;;;;;;30.40;12.73;;;7.90;97.40;;;;;;1872684;76;21222;-39
2022/11/27 04:44:11;;;;;;;29.10;11.63;;;7.90;97.50;;;;;;1872648;76;21272;-39
2022/11/27 04:46:40;;;;;;;26.82;11.68;;;7.90;97.50;;;;;;1872627;76;21641;-39
2022/11/27 04:49:10;;;;;;;27.42;12.18;;;7.90;97.40;;;;;;1872758;77;21348;-39
2022/11/27 04:51:39;;;;;;;29.85;12.03;;;7.90;97.40;;;;;;1872515;77;21149;-39
2022/11/27 04:54:09;;;;;;;32.28;12.45;;;7.90;97.40;;;;;;1872557;77;21335;-40
2022/11/27 04:56:38;;;;;;;36.10;14.73;;;7.90;97.50;;;;;;1872529;77;21246;-39
2022/11/27 04:59:07;;;;;;;28.02;13.20;;;7.90;97.40;;;;;;1872742;76;21290;-40
2022/11/27 05:01:36;;;;;;;30.90;13.65;;;8.00;97.50;;;;;;1872668;75;21093;-39
2022/11/27 05:04:05;;;;;;;29.55;13.25;;;8.00;97.50;;;;;;1872807;76;21286;-39
2022/11/27 05:06:34;;;;;;;23.32;11.78;;;8.00;97.40;;;;;;1872556;77;21290;-40
2022/11/27 05:09:04;;;;;;;33.00;12.85;;;8.00;97.40;;;;;;1872653;76;21274;-39
2022/11/27 05:11:34;;;;;;;29.67;14.00;;;8.00;97.40;;;;;;1872580;77;21217;-39
2022/11/27 05:14:16;;;;;;;27.95;12.53;;;8.00;97.40;;;;;;1872653;77;21280;-39
2022/11/27 05:16:48;;;;;;;33.67;12.93;;;8.00;97.40;;;;;;1872639;75;21321;-39
2022/11/27 05:19:19;;;;;;;28.02;12.75;;;8.00;97.50;;;;;;1872717;77;21271;-39
2022/11/27 05:21:49;;;;;;;27.85;12.10;;;7.90;97.40;;;;;;1872487;76;21274;-39
2022/11/27 05:24:19;;;;;;;24.40;10.72;;;8.00;97.50;;;;;;1872576;77;21336;-39
2022/11/27 05:26:49;;;;;;;20.88;10.53;;;8.00;97.30;;;;;;1872679;75;21166;-39
2022/11/27 05:29:18;;;;;;;26.97;12.82;;;7.90;97.20;;;;;;1872634;76;21266;-39
2022/11/27 05:31:48;;;;;;;22.10;10.78;;;7.90;97.40;;;;;;1872737;77;21097;-39
2022/11/27 05:34:17;;;;;;;22.65;11.53;;;7.90;97.30;;;;;;1872679;76;21332;-41
2022/11/27 05:36:46;;;;;;;27.25;11.78;;;7.90;97.30;;;;;;1872748;75;21097;-39
2022/11/27 05:39:15;;;;;;;33.20;12.75;;;7.90;97.20;;;;;;1872628;76;21860;-39
2022/11/27 05:41:44;;;;;;;33.42;14.78;;;8.00;97.30;;;;;;1872660;77;21163;-40
2022/11/27 05:44:15;;;;;;;30.08;13.20;;;8.00;97.30;;;;;;1872674;75;21412;-39
2022/11/27 05:46:44;;;;;;;31.70;13.75;;;8.00;97.40;;;;;;1872656;77;21285;-40
2022/11/27 05:49:15;;;;;;;30.70;13.22;;;8.10;97.40;;;;;;1872672;76;21191;-39
2022/11/27 05:51:44;;;;;;;33.38;15.55;;;8.10;97.30;;;;;;1872858;77;21137;-39
2022/11/27 05:54:14;;;;;;;19.27;10.00;;;8.10;97.30;;;;;;1872814;77;21171;-39
2022/11/27 05:56:43;;;;;;;21.37;11.43;;;8.10;97.20;;;;;;1872555;77;21065;-39
2022/11/27 05:59:12;;;;;;;26.57;13.98;;;8.10;97.20;;;;;;1872625;75;21161;-39
2022/11/27 06:01:42;;;;;;;28.80;13.43;;;8.10;97.10;;;;;;1872701;77;21157;-39
2022/11/27 06:04:11;;;;;;;22.22;12.15;;;8.10;97.10;;;;;;1872864;76;21219;-39
2022/11/27 06:06:40;;;;;;;25.27;12.68;;;8.10;97.20;;;;;;1872730;76;21212;-39
2022/11/27 06:09:09;;;;;;;31.10;13.03;;;8.10;97.20;;;;;;1872648;75;21268;-39
2022/11/27 06:11:39;;;;;;;27.10;12.93;;;8.00;97.10;;;;;;1872548;75;21200;-39
2022/11/27 06:14:09;;;;;;;32.60;14.28;;;8.10;97.20;;;;;;1872715;76;21113;-39
2022/11/27 06:16:39;;;;;;;29.63;13.35;;;8.10;97.20;;;;;;1872495;76;21374;-39
2022/11/27 06:19:08;;;;;;;31.97;13.93;;;8.10;97.20;;;;;;1872796;76;21153;-39
2022/11/27 06:21:37;;;;;;;26.15;11.83;;;8.10;97.20;;;;;;1872732;77;21186;-40
2022/11/27 06:24:07;;;;;;;28.65;13.70;;;8.10;97.20;;;;;;1872728;77;21266;-39
2022/11/27 06:26:36;;;;;;;31.02;13.60;;;8.10;97.10;;;;;;1872672;77;21673;-39
2022/11/27 06:29:06;;;;;;;31.35;12.13;;;8.10;96.90;;;;;;1872799;77;21192;-39
2022/11/27 06:31:35;;;;;;;26.15;12.30;;;8.10;97.10;;;;;;1872611;76;21365;-39
2022/11/27 06:34:05;;;;;;;23.50;11.03;;;8.10;97.00;;;;;;1872665;76;21230;-39
2022/11/27 06:36:37;;;;;;;20.10;10.93;;;8.10;96.90;;;;;;1872925;76;21069;-39
2022/11/27 06:39:07;;;;;;;28.77;10.13;;;8.00;97.00;;;;;;1872925;77;21104;-39
2022/11/27 06:41:36;;;;;;;25.17;10.45;;;8.00;97.10;;;;;;1872778;77;21249;-39
2022/11/27 06:44:05;;;;;;;25.27;10.50;;;8.00;97.20;;;;;;1872855;77;21332;-39
2022/11/27 06:46:34;;;;;;;20.62;10.72;;;8.00;97.20;;;;;;1872755;76;21311;-39
2022/11/27 06:49:03;;;;;;;21.73;10.80;;;8.00;97.30;;;;;;1872945;77;21282;-39
2022/11/27 06:51:33;;;;;;;18.40;9.20;;;8.00;97.20;;;;;;1872759;76;21130;-39
2022/11/27 06:54:03;;;;;;;23.07;10.35;;;8.00;97.20;;;;;;1872798;77;21650;-40
2022/11/27 06:56:32;;;;;;;22.93;11.70;;;8.00;97.20;;;;;;1872835;77;21330;-39
2022/11/27 06:59:02;;;;;;;22.55;10.48;;;8.00;97.30;;;;;;1872782;76;21242;-39
2022/11/27 07:01:33;;;;;;;19.98;10.58;;;8.10;97.20;;;;;;1872721;77;21158;-39
2022/11/27 07:04:02;;;;;;;19.48;10.98;;;8.10;97.20;;;;;;1872879;76;21276;-39
2022/11/27 07:06:31;;;;;;;18.90;10.20;;;8.10;97.20;;;;;;1872724;77;21278;-40
2022/11/27 07:09:00;;;;;;;26.60;11.70;;;8.10;97.10;;;;;;1872765;77;21214;-39
2022/11/27 07:11:30;;;;;;;23.73;10.45;;;8.10;97.10;;;;;;1872827;76;21157;-39
2022/11/27 07:14:02;;;;;;;20.37;10.15;;;8.20;97.10;;;;;;1872720;75;21194;-39
2022/11/27 07:16:33;;;;;;;21.25;9.75;;;8.20;97.10;;;;;;1872642;77;21278;-40
2022/11/27 07:19:05;;;;;;;22.80;11.73;;;8.10;97.00;;;;;;1872790;77;21299;-40
2022/11/27 07:21:36;;;;;;;16.93;9.55;;;8.10;97.10;;;;;;1872886;76;21581;-39
2022/11/27 07:24:05;;;;;;;15.15;7.75;;;8.10;97.10;;;;;;1872790;77;21150;-38
2022/11/27 07:26:34;;;;;;;20.82;10.68;;;8.10;97.10;;;;;;1872854;77;21232;-39
2022/11/27 07:29:03;;;;;;;18.77;9.28;;;8.00;97.10;;;;;;1872765;77;21195;-39
2022/11/27 07:31:33;;;;;;;21.95;9.98;;;8.10;97.10;;;;;;1872673;77;21876;-39
2022/11/27 07:34:02;;;;;;;21.93;9.80;;;8.10;97.10;;;;;;1872779;76;21105;-39
2022/11/27 07:36:32;;;;;;;17.32;8.78;;;8.10;97.10;;;;;;1872841;76;21223;-40
2022/11/27 07:39:01;;;;;;;21.75;9.50;;;8.10;97.10;;;;;;1872720;77;21192;-39
2022/11/27 07:41:30;;;;;;;17.23;8.65;;;8.10;97.10;;;;;;1872798;76;21130;-39
2022/11/27 07:43:59;;;;;;;15.68;7.90;;;8.20;97.00;;;;;;1872768;76;21154;-39
2022/11/27 07:46:29;;;;;;;19.00;8.68;;;8.20;97.00;;;;;;1872667;76;21281;-40
2022/11/27 07:48:59;;;;;;;17.95;8.45;;;8.20;97.00;;;;;;1872833;77;21270;-39
2022/11/27 07:51:28;;;;;;;21.73;9.15;;;8.20;97.00;;;;;;1872648;77;21210;-40
2022/11/27 07:53:57;;;;;;;25.88;9.40;;;8.20;97.00;;;;;;1872762;77;21216;-39
2022/11/27 07:56:26;;;;;;;15.72;8.05;;;8.30;97.00;;;;;;1872744;77;21314;-39
2022/11/27 07:58:57;;;;;;;19.12;9.25;;;8.30;96.90;;;;;;1872740;76;21360;-39
2022/11/27 08:01:26;;;;;;;19.50;10.05;;;8.30;97.00;;;;;;1872780;76;21161;-39
2022/11/27 08:03:56;;;;;;;21.07;9.40;;;8.30;96.90;;;;;;1872730;75;21177;-39
2022/11/27 08:06:26;;;;;;;17.32;8.35;;;8.30;96.90;;;;;;1872805;76;21218;-39
2022/11/27 08:08:55;;;;;;;17.90;8.73;;;8.40;96.90;;;;;;1872723;77;21346;-39
2022/11/27 08:11:31;;;;;;;21.80;8.88;;;8.40;96.90;;;;;;1872670;77;21588;-39
2022/11/27 08:14:02;;;;;;;17.73;9.38;;;8.40;96.90;;;;;;1872779;77;21515;-39
2022/11/27 08:16:33;;;;;;;16.07;8.15;;;8.50;96.80;;;;;;1872690;75;21093;-39
2022/11/27 08:19:02;;;;;;;15.55;8.08;;;8.50;96.90;;;;;;1872754;76;21263;-39
2022/11/27 08:21:32;;;;;;;16.67;8.28;;;8.50;96.80;;;;;;1872782;76;21334;-40
2022/11/27 08:24:01;;;;;;;15.93;7.58;;;8.50;96.80;;;;;;1872842;76;21069;-39
2022/11/27 08:26:31;;;;;;;19.82;9.13;;;8.50;96.80;;;;;;1872735;77;21274;-39
2022/11/27 08:29:00;;;;;;;18.20;7.70;;;8.50;96.70;;;;;;1872447;77;21093;-41
2022/11/27 08:31:29;;;;;;;17.55;7.90;;;8.50;96.90;;;;;;1872094;76;21122;-41
2022/11/27 08:33:58;;;;;;;15.28;6.78;;;8.60;96.90;;;;;;1872743;77;21095;-43
2022/11/27 08:36:27;;;;;;;12.90;6.45;;;8.60;96.80;;;;;;1872467;76;21640;-43
2022/11/27 08:38:57;;;;;;;15.45;7.35;;;8.60;96.70;;;;;;1872582;76;21334;-43
2022/11/27 08:41:26;;;;;;;10.35;6.40;;;8.60;96.70;;;;;;1872505;76;21134;-47
2022/11/27 08:43:55;;;;;;;17.27;8.03;;;8.60;96.60;;;;;;1872656;75;21146;-42
2022/11/27 08:46:24;;;;;;;17.02;7.67;;;8.60;96.70;;;;;;1872551;77;21208;-42
2022/11/27 08:48:53;;;;;;;14.30;7.45;;;8.60;96.70;;;;;;1872633;76;21169;-46
2022/11/27 08:51:22;;;;;;;16.65;6.90;;;8.60;96.60;;;;;;1872751;77;21005;-43
2022/11/27 08:53:52;;;;;;;16.57;7.53;;;8.60;96.60;;;;;;1872733;77;21219;-42
2022/11/27 08:56:24;;;;;;;19.73;11.05;;;8.60;96.60;;;;;;1872769;76;21231;-42
2022/11/27 08:58:53;;;;;;;22.07;11.53;;;8.60;96.70;;;;;;1872650;76;21344;-39
2022/11/27 09:01:25;;;;;;;22.85;11.35;;;8.60;96.90;;;;;;1872788;76;21069;-41
2022/11/27 09:03:54;;;;;;;17.17;9.83;;;8.60;96.90;;;;;;1872709;76;21213;-42
2022/11/27 09:06:27;;;;;;;15.13;7.58;;;8.70;96.80;;;;;;1872607;77;21460;-45
2022/11/27 09:09:00;;;;;;;23.83;8.40;;;8.70;96.90;;;;;;1872858;77;21561;-47
2022/11/27 09:11:31;;;;;;;16.87;8.58;;;8.70;96.80;;;;;;1872699;77;21173;-46
2022/11/27 09:14:01;;;;;;;15.85;8.38;;;8.70;96.60;;;;;;1872830;77;21310;-47
2022/11/27 09:16:30;;;;;;;15.78;6.95;;;8.70;96.70;;;;;;1872816;75;21205;-48
2022/11/27 09:18:59;;;;;;;17.90;7.83;;;8.70;96.50;;;;;;1880976;76;21215;-48
2022/11/27 09:21:30;;;;;;;19.85;9.25;;;8.70;96.60;;;;;;1882324;76;21159;-47
2022/11/27 09:24:01;;;;;;;19.00;8.40;;;8.70;96.60;;;;;;1882246;76;21283;-48
2022/11/27 09:26:31;;;;;;;17.48;6.87;;;8.70;96.60;;;;;;1881812;76;21527;-50
2022/11/27 09:29:00;;;;;;;17.55;7.92;;;8.70;96.70;;;;;;1882124;76;21185;-48
2022/11/27 09:31:29;;;;;;;13.32;7.03;;;8.70;96.60;;;;;;1881943;75;21290;-47
2022/11/27 09:33:58;;;;;;;17.05;7.55;;;8.70;96.50;;;;;;1882091;75;21219;-49
2022/11/27 09:36:27;;;;;;;17.95;8.88;;;8.80;96.70;;;;;;1882185;76;21188;-47
2022/11/27 09:38:59;;;;;;;18.87;8.80;;;8.80;96.60;;;;;;1882089;76;21253;-46
2022/11/27 09:41:39;;;;;;;16.82;6.70;;;8.80;96.60;;;;;;1882145;76;21170;-46
2022/11/27 09:44:18;;;;;;;13.03;6.22;;;8.90;96.60;;;;;;1882175;76;21286;-48
2022/11/27 09:46:48;;;;;;;17.42;6.80;;;8.90;96.40;;;;;;1881876;76;21674;-47
2022/11/27 09:49:20;;;;;;;13.40;6.58;;;8.80;96.40;;;;;;1882218;76;21256;-48
2022/11/27 09:51:55;;;;;;;12.00;6.33;;;8.90;96.60;;;;;;1881435;75;21205;-48
2022/11/27 09:54:27;;;;;;;10.10;4.97;;;8.80;96.30;;;;;;1837121;76;21214;-48
2022/11/27 09:56:57;;;;;;;17.25;5.83;;;8.90;96.50;;;;;;1878386;76;21531;-50
2022/11/27 09:59:29;;;;;;;18.75;7.80;;;8.90;96.40;;;;;;1882145;76;21153;-49
2022/11/27 10:01:58;;;;;;;37.98;10.90;;;8.90;96.40;;;;;;1881397;76;21178;-48
2022/11/27 10:04:28;;;;;;;14.38;6.90;;;8.90;96.30;;;;;;1882328;76;21092;-47
2022/11/27 10:07:08;;;;;;;33.42;11.45;;;8.90;96.20;;;;;;1881967;76;21468;-49
2022/11/27 10:09:57;;;;;;;25.20;9.65;;;8.80;96.30;;;;;;1882206;76;21760;-50
2022/11/27 10:12:48;;;;;;;18.50;9.13;;;8.90;96.40;;;;;;1882196;76;21326;-48
2022/11/27 10:15:29;;;;;;;11.93;6.58;;;9.00;96.40;;;;;;1881970;75;21380;-48
2022/11/27 10:18:08;;;;;;;25.77;9.55;;;9.10;96.20;;;;;;1881032;76;21245;-48
2022/11/27 10:20:45;;;;;;;19.37;10.70;;;9.10;96.10;;;;;;1882220;75;21272;-46
2022/11/27 10:23:53;;;;;;;17.52;8.43;;;9.10;96.10;;;;;;1882303;76;21154;-57
2022/11/27 10:26:49;;;;;;;14.28;7.78;;;9.00;96.10;;;;;;1881558;76;21355;-56
2022/11/27 10:29:39;;;;;;;14.47;6.47;;;9.00;96.00;;;;;;1878438;76;21269;-54
2022/11/27 10:32:26;;;;;;;12.82;6.92;;;8.90;96.10;;;;;;1881251;76;21370;-56
2022/11/27 10:35:09;;;;;;;22.37;8.38;;;8.90;96.20;;;;;;1882122;75;21779;-56
2022/11/27 10:37:43;;;;;;;15.60;6.95;;;8.80;96.20;;;;;;1881230;76;21667;-54
2022/11/27 10:40:15;;;;;;;17.87;7.25;;;8.90;96.30;;;;;;1881950;75;21129;-54
2022/11/27 10:42:55;;;;;;;25.57;10.68;;;8.90;96.10;;;;;;1882273;76;21135;-58
2022/11/27 10:45:27;;;;;;;18.07;7.85;;;8.90;96.50;;;;;;1882152;75;21176;-55
2022/11/27 10:47:57;;;;;;;12.95;5.92;;;9.20;96.90;;;;;;1881948;75;21096;-56
2022/11/27 10:50:26;;;;;;;12.75;5.75;;;9.50;96.70;;;;;;1881877;76;21670;-57
2022/11/27 10:52:57;;;;;;;13.65;5.70;;;9.60;96.10;;;;;;1880937;76;21151;-53
2022/11/27 10:55:45;;;;;;;13.98;6.03;;;9.60;95.60;;;;;;1881651;75;21221;-51
2022/11/27 10:58:35;;;;;;;12.50;6.40;;;9.50;95.60;;;;;;1881374;76;21105;-50
2022/11/27 11:01:13;;;;;;;13.30;5.58;;;9.40;95.40;;;;;;1881705;75;21716;-52
2022/11/27 11:03:42;;;;;;;17.62;6.83;;;9.30;95.70;;;;;;1881901;76;21193;-43
2022/11/27 11:06:19;;;;;;;15.93;6.00;;;9.20;95.60;;;;;;1881829;76;21632;-43
2022/11/27 11:08:50;;;;;;;12.10;6.05;;;9.20;95.80;;;;;;1881387;76;21248;-43
2022/11/27 11:11:26;;;;;;;15.00;5.85;;;9.20;96.00;;;;;;1880691;76;21714;-41
2022/11/27 11:13:55;;;;;;;14.95;5.72;;;9.10;95.90;;;;;;1882129;76;21201;-42
2022/11/27 11:16:32;;;;;;;19.25;7.92;;;9.10;96.00;;;;;;1881274;76;21664;-42
2022/11/27 11:19:02;;;;;;;12.85;7.10;;;9.10;96.00;;;;;;1882028;76;21190;-43
2022/11/27 11:21:37;;;;;;;12.68;7.62;;;9.10;95.90;;;;;;1882068;75;21141;-45
2022/11/27 11:24:08;;;;;;;13.75;6.60;;;9.10;95.90;;;;;;1881840;75;21690;-42
2022/11/27 11:26:46;;;;;;;10.78;5.55;;;9.00;96.00;;;;;;1872424;76;21578;-45
2022/11/27 11:29:24;;;;;;;16.95;6.58;;;9.00;95.90;;;;;;1882198;75;21229;-43
2022/11/27 11:31:55;;;;;;;14.60;5.87;;;9.00;96.00;;;;;;1882005;76;21191;-42
2022/11/27 11:34:29;;;;;;;9.70;5.15;;;9.00;96.10;;;;;;1881968;75;21121;-42
2022/11/27 11:37:04;;;;;;;12.13;6.20;;;9.00;96.20;;;;;;1882182;76;21259;-43
2022/11/27 11:39:35;;;;;;;11.08;5.30;;;9.00;96.20;;;;;;1882119;76;21145;-41
2022/11/27 11:42:07;;;;;;;8.45;4.83;;;9.00;96.20;;;;;;1881999;75;21194;-44
2022/11/27 11:44:40;;;;;;;11.25;5.08;;;9.00;96.10;;;;;;1880241;76;21032;-43
2022/11/27 11:47:12;;;;;;;8.70;5.28;;;9.00;96.10;;;;;;1882096;76;21615;-42
2022/11/27 11:49:41;;;;;;;11.10;5.00;;;9.00;96.10;;;;;;1881245;76;21086;-41
2022/11/27 11:52:25;;;;;;;13.13;7.00;;;9.00;96.20;;;;;;1882245;76;21101;-41
2022/11/27 11:55:23;;;;;;;13.00;6.80;;;9.00;96.10;;;;;;1882142;76;21146;-42
2022/11/27 11:58:23;;;;;;;13.85;5.70;;;8.90;96.20;;;;;;1814179;76;21247;-41
2022/11/27 12:00:55;;;;;;;9.68;5.20;;;8.90;96.00;;;;;;1882209;76;21177;-41
2022/11/27 12:03:27;;;;;;;10.35;4.70;;;8.90;96.10;;;;;;1881582;76;21700;-41
2022/11/27 12:06:22;;;;;;;11.83;4.95;;;8.90;96.10;;;;;;1882047;75;21365;-43
2022/11/27 12:09:09;;;;;;;9.58;5.37;;;8.90;96.20;;;;;;1881291;76;21583;-41
2022/11/27 12:11:43;;;;;;;10.82;5.80;;;8.90;96.10;;;;;;1876780;76;21248;-42
2022/11/27 12:14:36;;;;;;;7.22;4.17;;;8.90;96.20;;;;;;1882070;76;21267;-41
2022/11/27 12:17:24;;;;;;;11.97;5.87;;;8.80;96.10;;;;;;1882195;75;21202;-42
2022/11/27 12:20:01;;;;;;;8.88;5.25;;;8.80;96.10;;;;;;1875706;75;21242;-43
2022/11/27 12:22:59;;;;;;;9.25;4.87;;;8.80;96.20;;;;;;1872548;76;21242;-43
2022/11/27 12:25:32;;;;;;;10.63;5.30;;;8.80;96.20;;;;;;1872417;76;21736;-42
2022/11/27 12:28:20;;;;;;;14.13;6.37;;;8.80;96.20;;;;;;1872688;77;21226;-41
2022/11/27 12:31:01;;;;;;;13.18;5.87;;;8.80;96.20;;;;;;1872532;77;21278;-42
2022/11/27 12:33:50;;;;;;;12.93;6.22;;;8.80;96.30;;;;;;1871853;76;21235;-43
2022/11/27 12:36:30;;;;;;;10.80;5.62;;;8.90;96.40;;;;;;1872491;77;21181;-41
2022/11/27 12:39:27;;;;;;;11.38;5.78;;;8.90;96.30;;;;;;1872144;76;21539;-41
2022/11/27 12:42:23;;;;;;;8.55;5.50;;;8.90;96.00;;;;;;1872504;75;21206;-42
2022/11/27 12:45:16;;;;;;;9.23;5.70;;;8.80;96.10;;;;;;1872548;77;21133;-43
2022/11/27 12:47:50;;;;;;;12.58;6.20;;;8.80;96.10;;;;;;1872703;77;21153;-42
2022/11/27 12:50:38;;;;;;;11.08;5.45;;;8.80;96.10;;;;;;1872572;76;21214;-42
2022/11/27 12:53:22;;;;;;;11.05;6.17;;;8.70;96.10;;;;;;1872711;77;21230;-42
2022/11/27 12:55:59;;;;;;;13.28;6.85;;;8.70;96.20;;;;;;1872456;75;21278;-42
2022/11/27 12:58:33;;;;;;;11.18;6.72;;;8.80;96.50;;;;;;1839396;76;21271;-41
2022/11/27 13:01:07;;;;;;;10.63;6.22;;;8.80;96.40;;;;;;1872547;77;21142;-42
2022/11/27 13:03:46;;;;;;;9.38;5.22;;;8.90;96.40;;;;;;1872461;75;21363;-42
2022/11/27 13:06:18;;;;;;;11.40;5.40;;;8.90;96.30;;;;;;1872435;76;21230;-43
2022/11/27 13:08:59;;;;;;;9.53;6.10;;;8.90;96.30;;;;;;1872399;75;21301;-41
2022/11/27 13:11:39;;;;;;;13.10;6.62;;;8.90;96.30;;;;;;1872363;76;21379;-44